createdAt,value
2022-11-15T00:02:16.773Z,101132.78
2022-11-15T00:05:02.235Z,101138.09
2022-11-15T00:07:55.465Z,101138.91
2022-11-15T00:10:42.077Z,101126.84
2022-11-15T00:13:29.255Z,101126.03
2022-11-15T00:16:15.043Z,101130.72
2022-11-15T00:19:01.479Z,101128.25
2022-11-15T00:21:46.926Z,101128.25
2022-11-15T00:24:32.678Z,101121.31
2022-11-15T00:27:18.317Z,101110.69
2022-11-15T00:30:04.452Z,101107.19
2022-11-15T00:32:50.357Z,101107.59
2022-11-15T00:35:36.190Z,101103.31
2022-11-15T00:38:21.626Z,101106.16
2022-11-15T00:41:09.850Z,101107.59
2022-11-15T00:43:55.958Z,101099.00
2022-11-15T00:46:41.516Z,101102.88
2022-11-15T00:49:27.205Z,101102.06
2022-11-15T00:52:13.218Z,101088.38
2022-11-15T00:54:58.954Z,101095.94
2022-11-15T00:57:45.698Z,101086.09
2022-11-15T01:00:31.373Z,101099.00
2022-11-15T01:03:17.279Z,101087.75
2022-11-15T01:06:03.345Z,101088.75
2022-11-15T01:08:49.371Z,101084.66
2022-11-15T01:11:35.074Z,101084.88
2022-11-15T01:14:25.205Z,101076.91
2022-11-15T01:17:11.018Z,101073.63
2022-11-15T01:19:56.341Z,101074.63
2022-11-15T01:22:41.587Z,101071.16
2022-11-15T01:25:27.128Z,101072.38
2022-11-15T01:28:12.361Z,101073.19
2022-11-15T01:31:00.950Z,101060.94
2022-11-15T01:33:47.582Z,101067.47
2022-11-15T01:36:33.254Z,101062.34
2022-11-15T01:39:19.104Z,101057.25
2022-11-15T01:42:05.535Z,101058.25
2022-11-15T01:44:52.830Z,101049.88
2022-11-15T01:47:42.045Z,101037.78
2022-11-15T01:50:32.567Z,101030.84
2022-11-15T01:53:21.407Z,101028.38
2022-11-15T01:56:10.825Z,101033.06
2022-11-15T01:59:00.120Z,101018.16
2022-11-15T02:01:46.185Z,101029.59
2022-11-15T02:04:36.435Z,101029.78
2022-11-15T02:07:22.908Z,101025.69
2022-11-15T02:10:13.305Z,101017.75
2022-11-15T02:13:01.276Z,101025.09
2022-11-15T02:16:27.749Z,101013.84
2022-11-15T02:19:34.108Z,101006.09
2022-11-15T02:22:43.963Z,101009.53
2022-11-15T02:25:58.339Z,101007.69
2022-11-15T02:29:04.901Z,101011.56
2022-11-15T02:32:24.432Z,101016.25
2022-11-15T02:35:31.362Z,101007.84
2022-11-15T02:38:42.018Z,101012.34
2022-11-15T02:41:54.768Z,101011.94
2022-11-15T02:44:46.345Z,101002.13
2022-11-15T02:47:39.859Z,101007.63
2022-11-15T02:50:29.542Z,101010.28
2022-11-15T02:53:16.459Z,101014.78
2022-11-15T02:56:02.251Z,101004.38
2022-11-15T02:59:18.752Z,101007.00
2022-11-15T03:02:30.723Z,100992.69
2022-11-15T03:05:43.435Z,100990.25
2022-11-15T03:08:40.115Z,100992.28
2022-11-15T03:11:26.270Z,100981.88
2022-11-15T03:14:39.140Z,100991.84
2022-11-15T03:17:37.828Z,100993.50
2022-11-15T03:20:26.002Z,100996.34
2022-11-15T03:23:12.286Z,100984.28
2022-11-15T03:25:59.501Z,100994.06
2022-11-15T03:29:02.437Z,101000.00
2022-11-15T03:31:55.814Z,100993.25
2022-11-15T03:35:02.873Z,100989.97
2022-11-15T03:38:12.799Z,100994.47
2022-11-15T03:41:06.002Z,100996.50
2022-11-15T03:44:17.612Z,100983.25
2022-11-15T03:47:39.829Z,100985.28
2022-11-15T03:50:26.089Z,100982.00
2022-11-15T03:53:12.645Z,100974.44
2022-11-15T03:55:57.817Z,100987.06
2022-11-15T03:58:44.128Z,100987.06
2022-11-15T04:01:29.432Z,100983.22
2022-11-15T04:04:15.501Z,100985.66
2022-11-15T04:07:00.907Z,100984.03
2022-11-15T04:10:04.402Z,100977.72
2022-11-15T04:12:50.106Z,100986.47
2022-11-15T04:15:36.144Z,100966.47
2022-11-15T04:18:21.906Z,100971.78
2022-11-15T04:21:27.576Z,100973.22
2022-11-15T04:24:13.149Z,100966.88
2022-11-15T04:26:59.807Z,100964.44
2022-11-15T04:29:45.355Z,100969.75
2022-11-15T04:32:31.135Z,100964.63
2022-11-15T04:35:16.350Z,100961.78
2022-11-15T04:38:04.412Z,100969.13
2022-11-15T04:40:49.880Z,100966.28
2022-11-15T04:43:35.773Z,100955.06
2022-11-15T04:46:22.291Z,100957.91
2022-11-15T04:49:08.102Z,100959.53
2022-11-15T04:51:53.427Z,100956.69
2022-11-15T04:54:39.275Z,100952.59
2022-11-15T04:57:24.630Z,100955.06
2022-11-15T05:00:15.129Z,100954.03
2022-11-15T05:03:18.988Z,100942.59
2022-11-15T05:06:05.280Z,100948.09
2022-11-15T05:08:50.557Z,100946.09
2022-11-15T05:11:36.528Z,100952.59
2022-11-15T05:14:22.075Z,100948.09
2022-11-15T05:17:07.678Z,100950.97
2022-11-15T05:19:53.486Z,100952.41
2022-11-15T05:22:40.369Z,100953.22
2022-11-15T05:25:26.350Z,100946.09
2022-11-15T05:28:12.507Z,100942.81
2022-11-15T05:31:09.958Z,100941.59
2022-11-15T05:33:57.604Z,100940.34
2022-11-15T05:36:46.596Z,100945.25
2022-11-15T05:39:32.611Z,100945.25
2022-11-15T05:42:18.424Z,100944.63
2022-11-15T05:45:07.670Z,100956.69
2022-11-15T05:47:54.935Z,100956.88
2022-11-15T05:50:44.956Z,100946.91
2022-11-15T05:53:31.819Z,100957.50
2022-11-15T05:56:18.183Z,100961.41
2022-11-15T05:59:04.107Z,100946.91
2022-11-15T06:01:50.477Z,100953.03
2022-11-15T06:04:36.119Z,100947.09
2022-11-15T06:07:22.437Z,100956.28
2022-11-15T06:10:09.132Z,100963.44
2022-11-15T06:13:05.855Z,100968.53
2022-11-15T06:15:51.479Z,100972.63
2022-11-15T06:18:38.815Z,100967.75
2022-11-15T06:21:24.568Z,100955.31
2022-11-15T06:24:10.929Z,100966.94
2022-11-15T06:26:56.394Z,100978.38
2022-11-15T06:29:42.220Z,100962.88
2022-11-15T06:32:27.726Z,100975.16
2022-11-15T06:35:14.380Z,100971.28
2022-11-15T06:38:09.664Z,100977.00
2022-11-15T06:40:55.162Z,100973.53
2022-11-15T06:43:41.617Z,100967.63
2022-11-15T06:46:27.336Z,100974.38
2022-11-15T06:49:12.618Z,100974.81
2022-11-15T06:51:58.310Z,100973.59
2022-11-15T06:54:43.554Z,100966.44
2022-11-15T06:57:29.071Z,100972.78
2022-11-15T07:00:15.266Z,100972.59
2022-11-15T07:03:02.047Z,100970.16
2022-11-15T07:06:04.242Z,100979.97
2022-11-15T07:08:52.669Z,100983.06
2022-11-15T07:11:38.082Z,100978.00
2022-11-15T07:14:24.072Z,100988.03
2022-11-15T07:17:09.350Z,100976.59
2022-11-15T07:19:55.410Z,100985.59
2022-11-15T07:22:41.959Z,100990.72
2022-11-15T07:25:28.181Z,100988.28
2022-11-15T07:28:14.121Z,100991.75
2022-11-15T07:31:04.103Z,100994.84
2022-11-15T07:33:49.735Z,100987.91
2022-11-15T07:36:35.970Z,100995.47
2022-11-15T07:39:21.070Z,100987.72
2022-11-15T07:42:25.675Z,100990.56
2022-11-15T07:45:11.185Z,100993.22
2022-11-15T07:47:57.851Z,100983.94
2022-11-15T07:50:43.576Z,100979.72
2022-11-15T07:53:30.108Z,100978.28
2022-11-15T07:56:16.100Z,100963.34
2022-11-15T07:59:02.048Z,100969.59
2022-11-15T08:01:47.785Z,100968.88
2022-11-15T08:04:33.829Z,100962.28
2022-11-15T08:07:19.356Z,100960.38
2022-11-15T08:10:08.245Z,100960.69
2022-11-15T08:13:06.170Z,100952.75
2022-11-15T08:15:56.421Z,100943.25
2022-11-15T08:18:43.120Z,100941.78
2022-11-15T08:21:29.446Z,100939.16
2022-11-15T08:24:15.286Z,100935.09
2022-11-15T08:27:00.982Z,100938.31
2022-11-15T08:29:49.144Z,100929.31
2022-11-15T08:32:35.236Z,100932.63
2022-11-15T08:35:26.262Z,100935.00
2022-11-15T08:38:14.380Z,100932.50
2022-11-15T08:41:05.694Z,100922.34
2022-11-15T08:43:51.294Z,100922.41
2022-11-15T08:46:36.748Z,100916.41
2022-11-15T08:49:22.470Z,100904.69
2022-11-15T08:52:07.779Z,100919.88
2022-11-15T08:54:53.692Z,100902.81
2022-11-15T08:57:39.263Z,100905.41
2022-11-15T09:00:25.409Z,100911.19
2022-11-15T09:03:11.025Z,100901.44
2022-11-15T09:06:01.902Z,100911.38
2022-11-15T09:08:48.389Z,100898.81
2022-11-15T09:11:34.301Z,100913.91
2022-11-15T09:14:19.885Z,100911.13
2022-11-15T09:17:10.094Z,100904.63
2022-11-15T09:19:55.474Z,100892.75
2022-11-15T09:22:41.543Z,100896.63
2022-11-15T09:25:27.745Z,100893.28
2022-11-15T09:28:13.603Z,100888.78
2022-11-15T09:31:04.418Z,100893.47
2022-11-15T09:33:50.387Z,100877.75
2022-11-15T09:36:35.927Z,100878.69
2022-11-15T09:39:21.981Z,100888.16
2022-11-15T09:42:27.119Z,100878.34
2022-11-15T09:46:02.155Z,100883.22
2022-11-15T09:48:55.424Z,100889.09
2022-11-15T09:51:51.046Z,100881.94
2022-11-15T09:54:53.223Z,100877.31
2022-11-15T09:57:41.193Z,100874.72
2022-11-15T10:00:52.705Z,100868.63
2022-11-15T10:03:35.276Z,100864.56
2022-11-15T10:06:07.016Z,100859.06
2022-11-15T10:09:16.467Z,100854.03
2022-11-15T10:11:45.206Z,100850.38
2022-11-15T10:14:25.497Z,100842.53
2022-11-15T10:17:08.347Z,100841.50
2022-11-15T10:19:57.104Z,100834.13
2022-11-15T10:22:40.241Z,100827.44
2022-11-15T10:25:10.434Z,100829.66
2022-11-15T10:27:37.530Z,100829.78
2022-11-15T10:30:12.814Z,100809.03
2022-11-15T10:32:42.979Z,100804.19
2022-11-15T10:35:28.307Z,100798.31
2022-11-15T10:38:12.931Z,100789.56
2022-11-15T10:40:42.071Z,100793.41
2022-11-15T10:43:11.864Z,100786.22
2022-11-15T10:45:39.503Z,100786.47
2022-11-15T10:48:15.401Z,100779.59
2022-11-15T10:50:45.445Z,100769.66
2022-11-15T10:53:43.370Z,100768.69
2022-11-15T10:56:16.616Z,100765.22
2022-11-15T10:58:51.845Z,100756.34
2022-11-15T11:01:25.318Z,100753.59
2022-11-15T11:04:11.096Z,100754.44
2022-11-15T11:06:58.228Z,100744.06
2022-11-15T11:09:35.214Z,100745.03
2022-11-15T11:12:06.787Z,100745.25
2022-11-15T11:14:37.572Z,100738.84
2022-11-15T11:17:49.362Z,100726.22
2022-11-15T11:20:41.673Z,100737.88
2022-11-15T11:23:39.233Z,100728.53
2022-11-15T11:26:41.164Z,100723.84
2022-11-15T11:29:50.820Z,100719.13
2022-11-15T11:33:16.035Z,100718.59
2022-11-15T11:36:16.526Z,100708.81
2022-11-15T11:39:52.509Z,100716.81
2022-11-15T11:42:47.353Z,100714.59
2022-11-15T11:45:51.692Z,100712.53
2022-11-15T11:48:30.773Z,100713.94
2022-11-15T11:51:19.391Z,100706.34
2022-11-15T11:53:55.750Z,100706.41
2022-11-15T11:56:32.949Z,100710.38
2022-11-15T11:59:25.380Z,100706.69
2022-11-15T12:01:52.726Z,100695.50
2022-11-15T12:04:28.595Z,100698.59
2022-11-15T12:07:13.175Z,100706.94
2022-11-15T12:10:00.085Z,100702.31
2022-11-15T12:13:01.962Z,100697.13
2022-11-15T12:15:57.019Z,100686.38
2022-11-15T12:18:24.515Z,100690.91
2022-11-15T12:21:15.917Z,100685.59
2022-11-15T12:23:53.671Z,100668.41
2022-11-15T12:26:34.319Z,100669.59
2022-11-15T12:29:10.888Z,100660.25
2022-11-15T12:31:57.455Z,100662.59
2022-11-15T12:34:44.573Z,100653.31
2022-11-15T12:37:39.406Z,100661.69
2022-11-15T12:40:26.272Z,100651.50
2022-11-15T12:43:00.375Z,100652.13
2022-11-15T12:45:43.913Z,100654.88
2022-11-15T12:48:16.852Z,100642.19
2022-11-15T12:50:56.456Z,100637.66
2022-11-15T12:53:26.434Z,100634.25
2022-11-15T12:56:17.563Z,100644.13
2022-11-15T12:59:03.199Z,100625.06
2022-11-15T13:01:38.961Z,100633.47
2022-11-15T13:04:28.017Z,100624.50
2022-11-15T13:07:06.208Z,100627.69
2022-11-15T13:09:33.036Z,100623.19
2022-11-15T13:12:04.962Z,100631.47
2022-11-15T13:14:38.169Z,100626.38
2022-11-15T13:17:20.522Z,100627.25
2022-11-15T13:19:55.014Z,100614.97
2022-11-15T13:22:40.213Z,100618.84
2022-11-15T13:25:35.640Z,100615.16
2022-11-15T13:28:26.417Z,100619.69
2022-11-15T13:31:17.016Z,100626.69
2022-11-15T13:33:45.092Z,100619.72
2022-11-15T13:36:26.363Z,100604.09
2022-11-15T13:39:06.671Z,100616.31
2022-11-15T13:41:37.317Z,100617.47
2022-11-15T13:44:05.397Z,100601.19
2022-11-15T13:46:34.612Z,100613.50
2022-11-15T13:49:13.675Z,100613.13
2022-11-15T13:51:52.202Z,100617.03
2022-11-15T13:54:33.543Z,100622.38
2022-11-15T13:57:06.814Z,100619.78
2022-11-15T13:59:46.580Z,100622.38
2022-11-15T14:02:35.703Z,100621.22
2022-11-15T14:05:20.293Z,100618.88
2022-11-15T14:08:13.587Z,100620.84
2022-11-15T14:10:40.993Z,100624.97
2022-11-15T14:13:29.378Z,100630.34
2022-11-15T14:16:21.596Z,100640.13
2022-11-15T14:18:53.716Z,100645.53
2022-11-15T14:21:21.621Z,100641.59
2022-11-15T14:23:50.166Z,100654.41
2022-11-15T14:26:33.718Z,100651.59
2022-11-15T14:29:26.679Z,100656.97
2022-11-15T14:31:55.720Z,100662.88
2022-11-15T14:34:23.175Z,100644.19
2022-11-15T14:36:50.166Z,100647.91
2022-11-15T14:39:17.259Z,100654.03
2022-11-15T14:41:44.484Z,100656.34
2022-11-15T14:44:13.246Z,100647.81
2022-11-15T14:46:40.496Z,100652.16
2022-11-15T14:49:07.369Z,100645.41
2022-11-15T14:51:34.900Z,100645.28
2022-11-15T14:54:01.987Z,100645.53
2022-11-15T14:56:28.983Z,100648.13
2022-11-15T14:58:56.256Z,100646.81
2022-11-15T15:01:26.826Z,100643.06
2022-11-15T15:03:59.126Z,100638.75
2022-11-15T15:06:27.083Z,100627.63
2022-11-15T15:08:54.338Z,100642.19
2022-11-15T15:11:28.355Z,100631.75
2022-11-15T15:13:57.948Z,100630.84
2022-11-15T15:16:25.888Z,100634.47
2022-11-15T15:18:53.394Z,100634.88
2022-11-15T15:21:36.903Z,100638.44
2022-11-15T15:24:05.267Z,100632.03
2022-11-15T15:26:37.187Z,100635.84
2022-11-15T15:29:04.673Z,100638.00
2022-11-15T15:31:31.903Z,100639.09
2022-11-15T15:33:58.850Z,100633.72
2022-11-15T15:36:25.698Z,100631.53
2022-11-15T15:38:53.554Z,100632.88
2022-11-15T15:41:20.383Z,100635.50
2022-11-15T15:43:48.350Z,100628.72
2022-11-15T15:46:18.464Z,100638.38
2022-11-15T15:48:46.471Z,100627.31
2022-11-15T15:51:19.940Z,100636.94
2022-11-15T15:53:49.312Z,100633.38
2022-11-15T15:56:16.169Z,100632.78
2022-11-15T15:58:43.072Z,100630.75
2022-11-15T16:01:10.082Z,100624.00
2022-11-15T16:03:37.153Z,100621.75
2022-11-15T16:06:05.287Z,100628.69
2022-11-15T16:08:42.843Z,100623.25
2022-11-15T16:11:15.072Z,100630.94
2022-11-15T16:13:42.041Z,100628.69
2022-11-15T16:16:13.868Z,100641.78
2022-11-15T16:18:41.464Z,100624.94
2022-11-15T16:21:09.739Z,100624.84
2022-11-15T16:23:36.674Z,100636.06
2022-11-15T16:26:13.679Z,100629.75
2022-11-15T16:28:40.616Z,100624.78
2022-11-15T16:31:11.663Z,100616.63
2022-11-15T16:33:40.144Z,100623.19
2022-11-15T16:36:19.168Z,100630.28
2022-11-15T16:38:47.063Z,100631.53
2022-11-15T16:41:14.031Z,100630.09
2022-11-15T16:43:40.952Z,100621.34
2022-11-15T16:46:16.677Z,100628.53
2022-11-15T16:48:43.982Z,100621.66
2022-11-15T16:51:11.024Z,100624.00
2022-11-15T16:53:38.223Z,100618.50
2022-11-15T16:56:18.620Z,100625.31
2022-11-15T16:58:45.922Z,100619.00
2022-11-15T17:01:25.902Z,100618.81
2022-11-15T17:03:53.657Z,100626.13
2022-11-15T17:06:24.799Z,100627.13
2022-11-15T17:08:52.215Z,100630.75
2022-11-15T17:11:22.828Z,100629.53
2022-11-15T17:13:49.894Z,100617.84
2022-11-15T17:16:18.676Z,100621.75
2022-11-15T17:18:45.767Z,100607.13
2022-11-15T17:21:18.828Z,100613.22
2022-11-15T17:23:46.683Z,100611.16
2022-11-15T17:26:29.705Z,100610.25
2022-11-15T17:29:01.014Z,100611.66
2022-11-15T17:31:30.116Z,100605.09
2022-11-15T17:33:57.025Z,100607.66
2022-11-15T17:36:24.677Z,100596.53
2022-11-15T17:38:58.123Z,100603.41
2022-11-15T17:41:27.493Z,100594.44
2022-11-15T17:43:58.213Z,100602.59
2022-11-15T17:46:25.689Z,100595.78
2022-11-15T17:48:52.785Z,100590.09
2022-11-15T17:51:19.811Z,100603.13
2022-11-15T17:53:49.154Z,100610.22
2022-11-15T17:56:24.042Z,100606.63
2022-11-15T17:58:56.578Z,100600.59
2022-11-15T18:01:32.708Z,100608.03
2022-11-15T18:04:02.063Z,100605.22
2022-11-15T18:06:31.935Z,100601.41
2022-11-15T18:08:59.704Z,100602.09
2022-11-15T18:11:30.535Z,100599.09
2022-11-15T18:14:07.056Z,100600.38
2022-11-15T18:16:35.723Z,100599.91
2022-11-15T18:19:09.000Z,100587.16
2022-11-15T18:21:56.138Z,100585.53
2022-11-15T18:24:35.214Z,100583.09
2022-11-15T18:27:04.779Z,100588.09
2022-11-15T18:29:34.594Z,100581.59
2022-11-15T18:32:05.309Z,100574.84
2022-11-15T18:34:34.060Z,100573.69
2022-11-15T18:37:02.785Z,100571.50
2022-11-15T18:39:30.624Z,100584.84
2022-11-15T18:41:58.039Z,100576.94
2022-11-15T18:44:25.299Z,100579.03
2022-11-15T18:46:52.229Z,100579.50
2022-11-15T18:49:20.257Z,100595.75
2022-11-15T18:51:47.589Z,100585.53
2022-11-15T18:54:17.138Z,100592.94
2022-11-15T18:56:45.770Z,100589.94
2022-11-15T18:59:13.372Z,100584.59
2022-11-15T19:01:48.529Z,100579.84
2022-11-15T19:04:19.600Z,100575.31
2022-11-15T19:06:49.442Z,100576.59
2022-11-15T19:09:18.961Z,100580.19
2022-11-15T19:11:48.321Z,100578.91
2022-11-15T19:14:18.277Z,100575.56
2022-11-15T19:16:52.355Z,100566.50
2022-11-15T19:19:28.943Z,100568.69
2022-11-15T19:21:57.478Z,100574.63
2022-11-15T19:24:26.998Z,100585.88
2022-11-15T19:26:55.070Z,100585.88
2022-11-15T19:29:22.212Z,100585.53
2022-11-15T19:31:49.427Z,100574.38
2022-11-15T19:34:16.632Z,100580.53
2022-11-15T19:36:45.286Z,100561.50
2022-11-15T19:39:14.625Z,100570.44
2022-11-15T19:41:44.239Z,100576.38
2022-11-15T19:44:13.046Z,100567.31
2022-11-15T19:46:41.161Z,100568.34
2022-11-15T19:49:10.811Z,100569.63
2022-11-15T19:51:41.390Z,100559.53
2022-11-15T19:54:09.758Z,100572.88
2022-11-15T19:56:38.095Z,100575.19
2022-11-15T19:59:05.515Z,100573.13
2022-11-15T20:01:39.738Z,100580.31
2022-11-15T20:04:09.948Z,100573.13
2022-11-15T20:06:41.536Z,100574.63
2022-11-15T20:09:13.091Z,100577.28
2022-11-15T20:11:40.014Z,100580.66
2022-11-15T20:14:09.448Z,100582.06
2022-11-15T20:16:36.603Z,100581.81
2022-11-15T20:19:03.887Z,100584.03
2022-11-15T20:21:31.889Z,100583.22
2022-11-15T20:23:58.990Z,100577.53
2022-11-15T20:26:26.019Z,100570.09
2022-11-15T20:28:53.068Z,100579.97
2022-11-15T20:31:20.103Z,100573.13
2022-11-15T20:33:47.062Z,100567.66
2022-11-15T20:36:16.017Z,100566.84
2022-11-15T20:38:44.592Z,100561.50
2022-11-15T20:41:15.258Z,100563.59
2022-11-15T20:43:43.971Z,100563.13
2022-11-15T20:46:12.558Z,100562.44
2022-11-15T20:48:40.621Z,100566.16
2022-11-15T20:51:17.868Z,100576.38
2022-11-15T20:53:46.728Z,100569.88
2022-11-15T20:56:21.099Z,100571.25
2022-11-15T20:58:50.526Z,100571.25
2022-11-15T21:01:24.601Z,100571.25
2022-11-15T21:03:54.410Z,100568.81
2022-11-15T21:06:22.475Z,100574.50
2022-11-15T21:09:09.728Z,100558.13
2022-11-15T21:11:56.162Z,100551.19
2022-11-15T21:14:23.228Z,100546.75
2022-11-15T21:16:50.286Z,100549.66
2022-11-15T21:19:17.394Z,100559.41
2022-11-15T21:21:45.677Z,100550.47
2022-11-15T21:24:12.791Z,100562.31
2022-11-15T21:26:39.670Z,100563.13
2022-11-15T21:29:06.819Z,100555.00
2022-11-15T21:31:34.554Z,100559.06
2022-11-15T21:34:02.665Z,100555.81
2022-11-15T21:36:30.218Z,100558.03
2022-11-15T21:38:57.194Z,100551.28
2022-11-15T21:41:24.068Z,100542.69
2022-11-15T21:43:51.616Z,100541.31
2022-11-15T21:46:18.471Z,100552.91
2022-11-15T21:48:45.823Z,100543.28
2022-11-15T21:51:12.874Z,100550.13
2022-11-15T21:53:40.007Z,100556.63
2022-11-15T21:56:07.865Z,100550.72
2022-11-15T21:58:35.928Z,100546.66
2022-11-15T22:01:22.042Z,100541.31
2022-11-15T22:03:49.263Z,100541.78
2022-11-15T22:06:18.278Z,100539.81
2022-11-15T22:08:46.540Z,100531.91
2022-11-15T22:11:14.998Z,100547.94
2022-11-15T22:13:42.430Z,100540.63
2022-11-15T22:16:10.412Z,100534.69
2022-11-15T22:18:39.024Z,100544.75
2022-11-15T22:21:12.391Z,100530.84
2022-11-15T22:23:40.887Z,100534.78
2022-11-15T22:26:12.025Z,100529.22
2022-11-15T22:28:39.270Z,100526.19
2022-11-15T22:31:06.290Z,100520.72
2022-11-15T22:33:35.080Z,100528.28
2022-11-15T22:36:03.902Z,100512.72
2022-11-15T22:38:32.109Z,100514.59
2022-11-15T22:40:59.717Z,100518.06
2022-11-15T22:43:28.330Z,100520.16
2022-11-15T22:45:58.379Z,100522.59
2022-11-15T22:48:37.272Z,100516.44
2022-11-15T22:51:06.455Z,100518.53
2022-11-15T22:53:33.555Z,100512.00
2022-11-15T22:56:04.140Z,100523.63
2022-11-15T22:58:33.549Z,100515.63
2022-11-15T23:01:04.809Z,100500.66
2022-11-15T23:03:34.059Z,100505.19
2022-11-15T23:06:06.263Z,100503.56
2022-11-15T23:08:34.226Z,100501.13
2022-11-15T23:11:22.261Z,100506.81
2022-11-15T23:13:53.112Z,100505.19
2022-11-15T23:16:23.835Z,100498.81
2022-11-15T23:18:54.772Z,100495.09
2022-11-15T23:21:47.324Z,100496.72
2022-11-15T23:24:15.483Z,100492.91
2022-11-15T23:26:43.264Z,100484.31
2022-11-15T23:29:13.608Z,100481.25
2022-11-15T23:32:02.362Z,100479.41
2022-11-15T23:34:37.061Z,100491.94
2022-11-15T23:37:05.346Z,100486.81
2022-11-15T23:39:32.681Z,100487.28
2022-11-15T23:42:04.429Z,100489.38
2022-11-15T23:44:34.974Z,100484.50
2022-11-15T23:47:01.873Z,100484.59
2022-11-15T23:49:29.379Z,100476.38
2022-11-15T23:51:56.719Z,100481.94
2022-11-15T23:54:23.700Z,100479.50
2022-11-15T23:56:50.578Z,100471.97
2022-11-15T23:59:18.019Z,100469.28
